Time;durP1;ratioP1;P1;durP2;ratioP2;P2;SDS_P1;SDS_P2;PMS_P1;PMS_P2;Temp;Humidity;BMP_temperature;BMP_pressure;BME280_temperature;BME280_humidity;BME280_pressure;Samples;Min_cycle;Max_cycle;Signal;HPM_P1;HPM_P2
2022/04/25 00:01:22;;;;;;;14.07;7.55;;;12.30;99.90;;;12.19;87.04;100047.94;5143799;28;20051;-69
2022/04/25 00:03:54;;;;;;;12.52;7.55;;;12.30;99.90;;;12.19;86.80;100045.31;5143904;28;20068;-70
2022/04/25 00:06:26;;;;;;;14.35;7.80;;;12.30;99.90;;;12.20;86.23;100053.22;5144200;28;20043;-69
2022/04/25 00:09:00;;;;;;;14.80;7.85;;;12.20;99.90;;;12.14;85.53;100047.00;5144727;28;20146;-69
2022/04/25 00:11:32;;;;;;;13.27;7.43;;;12.20;99.90;;;12.17;85.24;100050.53;5143530;28;20047;-69
2022/04/25 00:14:05;;;;;;;13.63;7.05;;;12.20;99.90;;;12.15;85.70;100039.19;5143817;28;20102;-69
2022/04/25 00:16:37;;;;;;;12.70;7.20;;;12.20;99.90;;;12.20;85.32;100050.59;5143939;28;20054;-69
2022/04/25 00:19:09;;;;;;;13.68;6.95;;;12.20;99.90;;;12.19;85.25;100046.22;5143580;28;20062;-69
2022/04/25 00:21:41;;;;;;;12.85;7.28;;;12.20;99.90;;;12.16;84.76;100051.38;5145575;28;20053;-69
2022/04/25 00:24:14;;;;;;;13.10;7.20;;;12.20;99.90;;;12.14;84.70;100060.06;5147855;28;20057;-69
2022/04/25 00:26:47;;;;;;;11.30;6.70;;;12.20;99.90;;;12.14;84.89;100055.72;5148443;28;20082;-70
2022/04/25 00:29:19;;;;;;;12.57;7.70;;;12.20;99.90;;;12.13;84.60;100060.94;5147818;28;20480;-69
2022/04/25 00:31:51;;;;;;;13.60;7.35;;;12.10;99.90;;;12.09;84.82;100070.44;5147687;28;20057;-68
2022/04/25 00:34:23;;;;;;;11.60;7.03;;;12.10;99.90;;;12.08;84.71;100067.78;5147441;28;20055;-69
2022/04/25 00:36:55;;;;;;;12.95;7.15;;;12.10;99.90;;;12.06;84.69;100074.69;5147814;28;20057;-68
2022/04/25 00:39:29;;;;;;;13.48;7.10;;;12.10;99.90;;;12.05;84.72;100075.56;5147263;28;20057;-69
2022/04/25 00:42:01;;;;;;;13.10;7.00;;;12.10;99.90;;;12.06;85.14;100082.53;5147352;28;20053;-69
2022/04/25 00:44:33;;;;;;;11.98;7.47;;;12.10;99.90;;;12.09;84.68;100098.28;5147542;28;20410;-69
2022/04/25 00:47:07;;;;;;;14.13;7.50;;;12.10;99.90;;;12.07;85.18;100120.91;5148066;28;20047;-69
2022/04/25 00:49:39;;;;;;;12.02;6.88;;;12.00;99.90;;;12.01;85.59;100120.78;5147157;28;20051;-69
2022/04/25 00:52:11;;;;;;;12.73;6.13;;;12.00;99.90;;;12.03;85.39;100116.47;5146902;28;20057;-69
2022/04/25 00:54:44;;;;;;;13.10;6.60;;;12.00;99.90;;;12.01;85.34;100112.94;5147414;28;20057;-68
2022/04/25 00:57:17;;;;;;;11.93;6.63;;;12.00;99.90;;;12.02;85.14;100110.34;5147422;28;20046;-70
2022/04/25 00:59:49;;;;;;;9.90;5.90;;;12.00;99.90;;;12.05;84.07;100105.19;5147233;28;20054;-68
2022/04/25 01:02:21;;;;;;;13.10;7.47;;;12.00;99.90;;;12.03;83.36;100101.66;5147012;28;20051;-69
2022/04/25 01:04:55;;;;;;;14.57;6.80;;;12.00;99.90;;;11.95;82.03;100114.59;5147584;28;20055;-69
2022/04/25 01:07:30;;;;;;;13.00;6.65;;;12.00;99.90;;;11.86;81.51;100123.97;5147176;28;20061;-69
2022/04/25 01:10:05;;;;;;;10.55;5.75;;;11.90;99.90;;;11.78;82.06;100131.63;5147554;28;20121;-69
2022/04/25 01:12:38;;;;;;;13.18;6.70;;;11.90;99.90;;;11.65;83.00;100142.69;5146593;28;20053;-70
2022/04/25 01:15:13;;;;;;;10.57;6.68;;;11.80;99.90;;;11.53;83.72;100165.91;5146673;28;20057;-70
2022/04/25 01:17:45;;;;;;;11.02;5.88;;;11.70;99.90;;;11.40;85.17;100170.00;5146915;28;20050;-70
2022/04/25 01:20:17;;;;;;;11.15;6.32;;;11.60;99.90;;;11.28;85.87;100167.13;5146426;28;20046;-71
2022/04/25 01:22:55;;;;;;;10.00;5.07;;;11.50;99.90;;;11.21;85.93;100153.06;5146384;28;20050;-70
2022/04/25 01:28:18;;;;;;;10.05;5.20;;;11.30;99.90;;;10.92;88.12;100149.81;5145787;28;20518;-70
2022/04/25 01:30:50;;;;;;;9.70;5.90;;;11.20;99.90;;;10.84;89.26;100152.25;5146282;28;20051;-69
2022/04/25 01:33:22;;;;;;;9.40;5.93;;;11.10;99.90;;;10.76;89.07;100143.38;5145550;28;20469;-70
2022/04/25 01:35:54;;;;;;;10.13;4.93;;;11.00;99.90;;;10.69;89.89;100145.78;5146308;28;20061;-70
2022/04/25 01:38:26;;;;;;;7.63;3.58;;;10.90;99.90;;;10.63;88.66;100143.94;5146836;28;20043;-70
2022/04/25 01:41:00;;;;;;;6.20;3.58;;;10.80;99.90;;;10.64;88.69;100143.06;5146332;28;20074;-70
2022/04/25 01:43:37;;;;;;;7.65;4.07;;;10.80;99.90;;;10.59;89.05;100149.91;5146800;28;20057;-69
2022/04/25 01:46:09;;;;;;;7.45;4.57;;;10.70;99.90;;;10.58;89.51;100154.22;5146482;28;20476;-70
2022/04/25 01:48:41;;;;;;;7.63;4.65;;;10.70;99.90;;;10.55;89.82;100156.75;5146497;28;20549;-70
2022/04/25 01:51:13;;;;;;;9.70;5.15;;;10.60;99.90;;;10.51;90.25;100161.88;5146540;28;20058;-69
2022/04/25 01:53:45;;;;;;;11.25;5.85;;;10.60;99.90;;;10.48;91.02;100162.66;5146120;28;20066;-70
2022/04/25 01:56:20;;;;;;;10.38;5.55;;;10.60;99.90;;;10.40;91.76;100164.19;5146602;28;20055;-72
2022/04/25 01:58:52;;;;;;;9.25;5.10;;;10.50;99.90;;;10.35;92.62;100163.19;5146146;28;20057;-69
2022/04/25 02:01:24;;;;;;;7.70;4.40;;;10.50;99.90;;;10.27;92.84;100182.94;5146826;28;20054;-69
2022/04/25 02:03:56;;;;;;;5.93;3.53;;;10.50;99.90;;;10.25;93.02;100192.47;5145783;28;20053;-70
2022/04/25 02:06:29;;;;;;;6.35;3.30;;;10.40;99.90;;;10.18;92.09;100169.66;5146156;28;20496;-70
2022/04/25 02:09:00;;;;;;;7.20;3.75;;;10.40;99.90;;;10.08;92.24;100145.09;5146264;28;20133;-71
2022/04/25 02:11:34;;;;;;;4.47;2.72;;;10.30;99.90;;;9.96;92.87;100136.94;5145559;28;20047;-70
2022/04/25 02:14:06;;;;;;;5.88;2.70;;;10.30;99.90;;;9.79;91.50;100134.78;5146074;28;20502;-69
2022/04/25 02:16:38;;;;;;;3.63;2.25;;;10.20;99.90;;;9.59;92.18;100122.94;5145873;28;20051;-70
2022/04/25 02:19:11;;;;;;;3.63;2.63;;;9.90;99.90;;;9.52;94.12;100106.28;5145939;28;20051;-69
2022/04/25 02:21:43;;;;;;;4.78;2.65;;;9.90;99.90;;;9.46;93.94;100102.63;5145943;28;20051;-70
2022/04/25 02:24:15;;;;;;;4.13;2.53;;;9.80;99.90;;;9.42;94.41;100104.25;5145651;28;20053;-69
2022/04/25 02:26:49;;;;;;;3.65;2.20;;;9.80;99.90;;;9.39;93.46;100098.97;5145920;28;20063;-69
2022/04/25 02:29:22;;;;;;;4.18;2.42;;;9.70;99.90;;;9.36;92.98;100098.88;5145647;28;20043;-69
2022/04/25 02:31:54;;;;;;;2.95;2.13;;;9.70;99.90;;;9.34;94.02;100095.34;5145230;28;20059;-70
2022/04/25 02:34:26;;;;;;;3.22;2.17;;;9.60;99.90;;;9.32;93.98;100097.00;5145749;28;20054;-70
2022/04/25 02:36:58;;;;;;;4.07;2.25;;;9.60;99.90;;;9.32;93.71;100097.00;5145353;28;20050;-70
2022/04/25 02:39:30;;;;;;;5.07;2.53;;;9.60;99.90;;;9.28;93.45;100086.50;5146620;28;20047;-69
2022/04/25 02:42:04;;;;;;;4.20;2.35;;;9.60;99.90;;;9.23;93.16;100087.22;5144942;28;20051;-69
2022/04/25 02:44:36;;;;;;;5.18;2.92;;;9.50;99.90;;;9.20;93.12;100092.34;5143902;28;20050;-70
2022/04/25 02:47:09;;;;;;;6.70;2.40;;;9.50;99.90;;;9.20;92.60;100091.47;5145291;28;20055;-70
2022/04/25 02:49:41;;;;;;;6.05;2.65;;;9.50;99.90;;;9.17;92.12;100101.78;5145389;28;20055;-69
2022/04/25 02:52:14;;;;;;;5.57;2.72;;;9.50;99.90;;;9.07;91.87;100097.16;5144904;28;20046;-70
2022/04/25 02:54:46;;;;;;;6.85;2.60;;;9.40;99.90;;;9.10;93.21;100089.44;5145217;28;20058;-70
2022/04/25 02:57:19;;;;;;;5.30;2.92;;;9.40;99.90;;;9.09;93.14;100090.28;5145261;28;20053;-70
2022/04/25 02:59:51;;;;;;;4.68;2.72;;;9.40;99.90;;;9.06;93.27;100085.84;5145358;28;20057;-69
2022/04/25 03:02:23;;;;;;;6.00;3.03;;;9.40;99.90;;;9.09;93.48;100083.34;5144913;28;20066;-69
2022/04/25 03:04:55;;;;;;;6.72;2.75;;;9.40;99.90;;;9.15;93.31;100093.06;5144981;28;20141;-70
2022/04/25 03:07:27;;;;;;;4.75;2.70;;;9.40;99.90;;;9.18;92.80;100094.00;5145016;28;20046;-69
2022/04/25 03:09:59;;;;;;;4.68;2.60;;;9.40;99.90;;;9.27;92.77;100103.81;5144649;28;20047;-70
2022/04/25 03:12:38;;;;;;;7.40;2.53;;;9.40;99.90;;;9.38;92.76;100118.00;5145072;28;20078;-69
2022/04/25 03:15:10;;;;;;;10.13;4.80;;;9.50;99.90;;;9.52;92.55;100121.91;5145222;28;20141;-70
2022/04/25 03:17:42;;;;;;;5.63;3.03;;;9.60;99.90;;;9.64;92.37;100120.44;5144819;28;20053;-69
2022/04/25 03:20:14;;;;;;;4.80;2.55;;;9.70;99.90;;;9.77;92.23;100127.75;5144237;28;20046;-70
2022/04/25 03:22:46;;;;;;;4.68;2.90;;;9.70;99.90;;;9.84;91.77;100137.47;5144356;28;20061;-69
2022/04/25 03:25:18;;;;;;;6.35;3.05;;;9.80;99.90;;;9.93;92.69;100149.91;5144483;28;20057;-69
2022/04/25 03:27:52;;;;;;;5.22;2.65;;;9.90;99.90;;;10.00;92.70;100165.72;5144600;28;20061;-69
2022/04/25 03:30:24;;;;;;;7.90;2.65;;;10.00;99.90;;;10.06;92.69;100171.09;5144576;28;20084;-70
2022/04/25 03:32:58;;;;;;;4.90;3.08;;;10.00;99.90;;;10.10;92.70;100173.75;5144453;28;20460;-69
2022/04/25 03:35:30;;;;;;;4.65;2.83;;;10.10;99.90;;;10.14;92.91;100168.69;5144141;28;20090;-69
2022/04/25 03:38:02;;;;;;;4.30;2.58;;;10.10;99.90;;;10.17;92.90;100174.00;5144866;28;20047;-70
2022/04/25 03:40:35;;;;;;;5.55;2.75;;;10.10;99.90;;;10.20;93.08;100173.19;5144388;28;20047;-69
2022/04/25 03:43:09;;;;;;;6.20;3.50;;;10.20;99.90;;;10.21;92.97;100175.81;5144136;28;20416;-69
2022/04/25 03:45:41;;;;;;;4.90;2.72;;;10.20;99.90;;;10.23;93.33;100170.66;5144362;28;20051;-69
2022/04/25 03:48:13;;;;;;;5.95;2.90;;;10.20;99.90;;;10.25;93.55;100177.72;5144264;28;20575;-69
2022/04/25 03:50:45;;;;;;;5.60;2.60;;;10.20;99.90;;;10.29;93.54;100184.75;5144479;28;20046;-69
2022/04/25 03:53:17;;;;;;;5.45;2.70;;;10.20;99.90;;;10.28;92.93;100182.09;5144361;28;20141;-70
2022/04/25 03:58:40;;;;;;;6.18;2.75;;;10.30;99.90;;;10.32;92.15;100183.97;5144358;28;20514;-69
2022/04/25 04:01:12;;;;;;;5.78;3.38;;;10.30;99.90;;;10.33;92.05;100186.59;5143848;28;20512;-69
2022/04/25 04:03:45;;;;;;;6.88;2.90;;;10.30;99.90;;;10.32;91.85;100191.78;5143966;28;20053;-69
2022/04/25 04:06:17;;;;;;;7.65;3.30;;;10.30;99.90;;;10.33;91.47;100193.53;5144196;28;20146;-68
2022/04/25 04:08:49;;;;;;;7.45;3.45;;;10.30;99.90;;;10.27;91.18;100195.97;5144259;28;20047;-69
2022/04/25 04:11:20;;;;;;;7.22;4.00;;;10.30;99.90;;;10.24;91.46;100198.50;5144023;28;20043;-69
2022/04/25 04:13:54;;;;;;;6.15;3.30;;;10.20;99.90;;;10.23;92.16;100205.41;5144027;28;20496;-70
2022/04/25 04:16:26;;;;;;;7.70;3.28;;;10.20;99.90;;;10.26;92.86;100196.81;5144585;28;20051;-70
2022/04/25 04:18:58;;;;;;;9.30;4.78;;;10.20;99.90;;;10.25;93.10;100200.28;5144259;28;20062;-69
2022/04/25 04:21:30;;;;;;;7.50;3.70;;;10.20;99.90;;;10.26;93.32;100199.44;5253244;23;20456;-78
2022/04/25 04:24:02;;;;;;;8.13;3.78;;;10.20;99.90;;;10.26;93.24;100197.69;5155050;28;20051;-78
2022/04/25 04:26:50;;;;;;;7.95;3.63;;;10.30;99.90;;;10.20;93.21;100202.72;5163343;28;20061;-78
2022/04/25 04:29:23;;;;;;;6.63;3.45;;;10.20;99.90;;;10.17;93.34;100197.44;5160232;28;20054;-78
2022/04/25 04:31:55;;;;;;;9.48;4.65;;;10.20;99.90;;;10.03;93.28;100189.22;5163323;28;20054;-78
2022/04/25 04:34:27;;;;;;;8.43;4.15;;;10.10;99.90;;;9.97;93.42;100199.47;5163764;28;20053;-78
2022/04/25 04:36:59;;;;;;;7.43;3.50;;;10.10;99.90;;;9.90;93.71;100191.44;5164168;28;20515;-78
2022/04/25 04:39:32;;;;;;;9.35;4.20;;;10.00;99.90;;;9.79;94.43;100188.56;5163238;28;20053;-77
2022/04/25 04:42:04;;;;;;;11.77;4.60;;;9.90;99.90;;;9.72;94.72;100184.03;5163845;28;20504;-78
2022/04/25 04:44:38;;;;;;;9.20;4.25;;;9.90;99.90;;;9.73;95.22;100181.47;5163756;28;20054;-77
2022/04/25 04:47:10;;;;;;;9.98;4.47;;;9.90;99.90;;;9.76;95.58;100185.84;5164211;28;20076;-78
2022/04/25 04:49:42;;;;;;;8.20;4.18;;;9.90;99.90;;;9.74;95.38;100184.94;5163906;28;20050;-77
2022/04/25 04:52:14;;;;;;;8.00;4.05;;;9.80;99.90;;;9.76;95.79;100194.53;5163186;28;20054;-77
2022/04/25 04:54:46;;;;;;;8.63;4.40;;;9.80;99.90;;;9.83;95.53;100194.72;5164080;28;20056;-77
2022/04/25 04:57:18;;;;;;;9.25;4.38;;;9.90;99.90;;;9.78;95.50;100192.00;5163966;28;20053;-77
2022/04/25 04:59:52;;;;;;;9.48;4.47;;;9.90;99.90;;;9.81;95.63;100186.88;5164034;28;20054;-77
2022/04/25 05:02:24;;;;;;;9.38;4.07;;;9.80;99.90;;;9.82;95.79;100191.25;5165008;28;20485;-76
2022/04/25 05:04:56;;;;;;;12.70;5.28;;;9.80;99.90;;;9.83;95.59;100190.41;5165961;28;20419;-75
2022/04/25 05:07:28;;;;;;;8.68;5.05;;;9.90;99.90;;;9.82;95.57;100191.25;5164722;28;20414;-75
2022/04/25 05:10:02;;;;;;;9.95;4.57;;;9.90;99.90;;;9.77;95.59;100182.41;5166565;28;20133;-75
2022/04/25 05:12:48;;;;;;;8.82;4.65;;;9.90;99.90;;;9.70;95.97;100173.53;5166318;28;20149;-75
2022/04/25 05:15:22;;;;;;;8.90;3.95;;;9.80;99.90;;;9.70;95.99;100177.88;5166800;28;20054;-74
2022/04/25 05:17:54;;;;;;;10.48;5.20;;;9.80;99.90;;;9.66;96.52;100176.03;5166861;28;20411;-74
2022/04/25 05:20:26;;;;;;;9.45;5.38;;;9.80;99.90;;;9.64;96.42;100175.97;5166833;28;20483;-75
2022/04/25 05:22:58;;;;;;;9.75;5.30;;;9.80;99.90;;;9.68;96.43;100179.56;5166091;28;20495;-75
2022/04/25 05:25:30;;;;;;;7.80;4.85;;;9.80;99.90;;;9.74;96.23;100182.34;5166740;28;20381;-75
2022/04/25 05:28:03;;;;;;;9.93;5.30;;;9.80;99.90;;;9.78;96.20;100186.81;5166509;28;20422;-75
2022/04/25 05:30:36;;;;;;;9.38;4.63;;;9.90;99.90;;;9.79;96.16;100184.25;5170898;28;20049;-75
2022/04/25 05:33:09;;;;;;;9.43;4.93;;;9.90;99.90;;;9.84;96.03;100191.28;5173209;28;20058;-76
2022/04/25 05:35:41;;;;;;;9.68;4.68;;;9.90;99.90;;;9.94;95.94;100194.19;5170978;28;20046;-75
2022/04/25 05:38:13;;;;;;;8.10;4.65;;;10.00;99.90;;;10.06;95.77;100204.94;5168495;28;20129;-74
2022/04/25 05:40:45;;;;;;;10.95;5.15;;;10.00;99.90;;;10.21;95.15;100208.78;5167823;28;20054;-77
2022/04/25 05:43:18;;;;;;;11.20;5.18;;;10.10;99.90;;;10.30;94.79;100211.66;5168644;28;20082;-74
2022/04/25 05:45:52;;;;;;;9.57;3.97;;;10.30;99.90;;;10.33;93.63;100214.38;5167678;28;20058;-76
2022/04/25 05:54:03;;;;;;;13.00;6.13;;;10.50;99.90;;;10.66;93.29;100224.78;5162183;28;20522;-75
2022/04/25 05:56:35;;;;;;;10.82;5.20;;;10.60;99.90;;;10.73;92.67;100212.78;5155086;28;20483;-74
2022/04/25 05:59:09;;;;;;;14.07;6.57;;;10.60;99.90;;;10.73;92.15;100210.19;5156979;28;20064;-72
2022/04/25 06:01:43;;;;;;;11.38;5.63;;;10.70;99.90;;;10.77;92.13;100212.03;5155761;28;20133;-72
2022/04/25 06:04:15;;;;;;;9.43;4.43;;;10.70;99.90;;;10.85;92.13;100218.31;5145962;28;20053;-72
2022/04/25 06:06:47;;;;;;;9.70;5.28;;;10.80;99.90;;;10.92;91.74;100225.44;5145866;28;20050;-71
2022/04/25 06:09:19;;;;;;;9.20;4.63;;;10.80;99.90;;;10.97;91.54;100221.22;5146460;28;20506;-72
2022/04/25 06:11:52;;;;;;;10.13;4.32;;;10.90;99.90;;;11.00;91.17;100221.28;5165099;28;20042;-72
2022/04/25 06:14:24;;;;;;;9.48;4.80;;;10.90;99.90;;;11.00;90.77;100228.22;5166061;28;20506;-74
2022/04/25 06:16:59;;;;;;;7.88;4.45;;;10.90;99.90;;;10.97;90.68;100220.34;5165929;28;20060;-72
2022/04/25 06:19:31;;;;;;;10.75;5.07;;;10.90;99.90;;;11.01;90.86;100228.25;5159046;28;20046;-72
2022/04/25 06:22:03;;;;;;;8.25;4.68;;;10.90;99.90;;;11.07;90.99;100228.41;5162555;28;20487;-74
2022/04/25 06:24:35;;;;;;;9.80;4.80;;;11.00;99.90;;;11.13;90.78;100233.75;5152357;28;20352;-74
2022/04/25 06:27:09;;;;;;;10.15;5.15;;;11.00;99.90;;;11.13;90.09;100238.97;5165337;28;20493;-73
2022/04/25 06:29:46;;;;;;;11.32;4.65;;;11.00;99.90;;;11.12;89.99;100242.44;5165279;28;20054;-73
2022/04/25 06:32:20;;;;;;;10.63;5.18;;;11.00;99.90;;;11.13;89.91;100249.41;5165345;28;20046;-74
2022/04/25 06:34:52;;;;;;;10.43;5.60;;;11.00;99.90;;;11.17;89.76;100266.03;5165743;28;20411;-71
2022/04/25 06:37:24;;;;;;;13.52;4.80;;;11.00;99.90;;;11.25;89.80;100268.81;5165646;28;20509;-73
2022/04/25 06:39:56;;;;;;;13.43;5.07;;;11.10;99.90;;;11.32;89.53;100265.50;5165404;28;20133;-70
2022/04/25 06:42:28;;;;;;;11.82;4.65;;;11.10;99.90;;;11.41;89.25;100270.97;5165094;28;20050;-70
2022/04/25 06:45:00;;;;;;;11.77;5.07;;;11.20;99.90;;;11.52;89.28;100274.66;5165337;28;20050;-70
2022/04/25 06:47:33;;;;;;;8.77;4.70;;;11.30;99.90;;;11.66;89.24;100283.69;5165363;28;20073;-72
2022/04/25 06:50:07;;;;;;;12.55;5.30;;;11.40;99.90;;;11.73;88.65;100286.44;5164950;28;20050;-70
2022/04/25 06:52:39;;;;;;;14.05;5.10;;;11.50;99.90;;;11.79;88.17;100286.56;5165296;28;20510;-71
2022/04/25 06:55:11;;;;;;;9.05;5.00;;;11.50;99.90;;;11.81;88.25;100290.16;5165115;28;20554;-71
2022/04/25 06:57:43;;;;;;;9.68;5.45;;;11.60;99.90;;;11.81;88.24;100290.16;5165024;28;20137;-69
2022/04/25 07:00:19;;;;;;;7.50;3.38;;;11.60;99.90;;;12.05;86.74;100308.94;5165726;28;20124;-68
2022/04/25 07:02:53;;;;;;;9.05;4.55;;;11.80;99.90;;;12.53;82.97;100305.56;5165011;28;20137;-70
2022/04/25 07:05:25;;;;;;;5.72;3.10;;;12.20;99.90;;;12.81;81.02;100298.22;5165186;28;20141;-73
2022/04/25 07:07:57;;;;;;;8.63;4.15;;;12.50;99.90;;;13.17;78.82;100295.31;5164773;28;20054;-73
2022/04/25 07:10:30;;;;;;;8.93;4.45;;;13.00;99.90;;;13.46;77.79;100301.06;5164724;28;20502;-74
2022/04/25 07:13:02;;;;;;;8.35;4.20;;;13.20;99.90;;;13.63;76.10;100309.16;5163629;28;20077;-72
2022/04/25 07:15:34;;;;;;;7.20;4.07;;;13.50;99.90;;;13.77;75.30;100308.53;5163932;28;20054;-73
2022/04/25 07:18:07;;;;;;;10.57;5.13;;;13.60;99.90;;;13.86;74.41;100313.00;5164143;28;20058;-68
2022/04/25 07:20:39;;;;;;;10.63;4.95;;;13.70;99.90;;;13.66;73.36;100317.97;5164653;28;20050;-70
2022/04/25 07:28:57;;;;;;;10.50;5.28;;;13.20;99.90;;;12.83;77.61;100317.44;5164234;28;20050;-71
2022/04/25 07:31:32;;;;;;;9.90;5.88;;;12.90;99.90;;;12.67;78.85;100316.28;5164005;28;20466;-71
2022/04/25 07:34:05;;;;;;;8.27;4.72;;;12.80;99.90;;;12.55;79.10;100319.53;5164429;28;20046;-70
2022/04/25 07:36:37;;;;;;;9.98;4.93;;;12.60;99.90;;;12.47;80.34;100324.63;5164713;28;20054;-70
2022/04/25 07:39:09;;;;;;;10.30;5.60;;;12.50;99.90;;;12.51;80.40;100322.94;5164025;28;20133;-71
2022/04/25 07:41:42;;;;;;;12.43;6.15;;;12.40;99.90;;;12.55;80.97;100327.38;5164472;28;20052;-70
2022/04/25 07:44:14;;;;;;;9.88;5.25;;;12.40;99.90;;;12.63;81.28;100331.00;5164433;28;20054;-66
2022/04/25 07:46:46;;;;;;;6.55;3.03;;;12.50;99.90;;;13.40;79.16;100330.66;5164601;28;20050;-56
2022/04/25 07:49:20;;;;;;;7.93;4.13;;;13.00;99.90;;;14.39;72.52;100334.66;5164254;28;20141;-57
2022/04/25 07:51:52;;;;;;;8.18;4.20;;;13.90;99.90;;;15.17;68.50;100342.50;5164400;28;20050;-57
2022/04/25 07:54:24;;;;;;;6.20;3.58;;;14.80;99.90;;;15.83;65.57;100336.03;5163957;28;20054;-56
2022/04/25 07:56:56;;;;;;;10.32;4.45;;;15.50;99.90;;;16.28;63.04;100345.03;5164072;28;20057;-56
2022/04/25 07:59:28;;;;;;;7.25;4.38;;;16.00;98.50;;;16.44;61.87;100338.97;5159352;28;20047;-55
2022/04/25 08:02:02;;;;;;;8.00;4.10;;;16.30;97.60;;;16.73;60.87;100332.94;5159198;28;20057;-59
2022/04/25 08:04:35;;;;;;;7.95;4.40;;;16.60;96.60;;;16.91;58.92;100340.03;5164330;28;20058;-60
2022/04/25 08:07:07;;;;;;;8.40;4.20;;;16.70;94.90;;;17.06;57.71;100343.53;5163798;28;20051;-59
2022/04/25 08:09:39;;;;;;;11.60;4.25;;;16.90;94.00;;;17.40;57.34;100345.31;5164370;28;20050;-59
2022/04/25 08:20:39;;;;;;;5.15;3.10;;;18.00;90.30;;;19.84;50.29;100356.50;5161360;28;20058;-59
2022/04/25 08:23:13;;;;;;;5.97;3.63;;;18.40;89.50;;;20.31;48.40;100362.16;5163265;28;20235;-60
2022/04/25 08:25:45;;;;;;;5.80;3.92;;;18.70;86.80;;;20.66;47.28;100366.16;5163945;28;20058;-60
2022/04/25 08:28:19;;;;;;;6.97;4.45;;;18.90;85.60;;;20.73;46.77;100359.00;5164010;28;20051;-60
2022/04/25 08:30:52;;;;;;;6.50;3.83;;;19.00;83.90;;;20.60;46.18;100374.19;5164084;28;20066;-59
2022/04/25 08:33:24;;;;;;;6.70;3.65;;;19.00;82.00;;;20.00;46.95;100366.91;5163475;28;20057;-57
2022/04/25 08:35:58;;;;;;;4.72;3.53;;;18.80;80.90;;;19.43;48.33;100370.94;5164074;28;20046;-59
2022/04/25 08:38:30;;;;;;;6.72;3.40;;;18.60;81.50;;;18.92;49.37;100371.31;5164144;28;20058;-60
2022/04/25 08:41:06;;;;;;;6.35;3.90;;;18.30;81.60;;;18.48;50.28;100375.91;5163879;28;20384;-59
2022/04/25 08:43:39;;;;;;;4.88;3.38;;;18.00;82.20;;;18.06;51.42;100381.31;5167130;28;20105;-57
2022/04/25 08:46:12;;;;;;;5.95;3.38;;;17.80;83.30;;;17.53;52.55;100379.56;5166100;28;20042;-58
2022/04/25 08:48:45;;;;;;;6.25;3.63;;;17.40;84.20;;;17.40;53.46;100388.34;5161607;28;20065;-57
2022/04/25 08:51:21;;;;;;;5.45;3.38;;;17.30;85.60;;;17.46;53.38;100393.63;5164561;28;20050;-58
2022/04/25 08:53:54;;;;;;;4.80;2.47;;;17.40;85.60;;;17.48;52.79;100393.63;5161850;28;20057;-59
2022/04/25 08:56:28;;;;;;;7.22;3.20;;;17.40;84.60;;;17.29;53.05;100395.38;5164706;28;20130;-58
2022/04/25 08:59:01;;;;;;;5.32;2.85;;;17.30;84.40;;;17.20;53.22;100396.22;5164635;28;20053;-58
2022/04/25 09:01:33;;;;;;;5.60;3.17;;;17.30;84.50;;;17.10;53.33;100394.47;5163926;28;20047;-57
2022/04/25 09:04:06;;;;;;;5.32;3.47;;;17.20;84.20;;;17.12;53.29;100397.97;5164540;28;20123;-57
2022/04/25 09:06:40;;;;;;;5.10;2.70;;;17.20;84.00;;;17.14;53.04;100400.59;5164554;28;20491;-58
2022/04/25 09:09:12;;;;;;;7.63;4.45;;;17.20;83.80;;;17.14;52.75;100401.47;5166024;28;20100;-71
2022/04/25 09:14:34;;;;;;;5.65;3.83;;;16.80;83.70;;;15.84;55.50;100398.22;5167515;28;20054;-74
2022/04/25 09:17:06;;;;;;;6.88;4.05;;;16.10;86.30;;;15.39;57.74;100404.88;5167230;28;20066;-72
2022/04/25 09:19:41;;;;;;;7.63;4.47;;;15.70;90.10;;;15.04;59.55;100408.88;5167195;28;20057;-74
2022/04/25 09:22:32;;;;;;;8.27;5.10;;;15.30;91.90;;;14.85;60.83;100411.28;5166471;28;20415;-73
2022/04/25 09:25:09;;;;;;;8.77;4.38;;;15.00;93.30;;;14.76;62.12;100411.19;5167286;28;20050;-72
2022/04/25 09:27:42;;;;;;;7.85;4.28;;;14.80;95.10;;;14.71;62.82;100412.00;5166875;28;20042;-72
2022/04/25 09:30:19;;;;;;;6.32;3.70;;;14.60;96.00;;;14.60;62.17;100412.75;5166647;28;20046;-71
2022/04/25 09:32:53;;;;;;;7.05;4.28;;;14.50;95.60;;;14.52;62.27;100410.91;5166395;28;20078;-72
2022/04/25 09:35:30;;;;;;;7.72;4.03;;;14.40;96.10;;;14.50;62.41;100407.38;5166485;28;20093;-73
2022/04/25 09:38:05;;;;;;;6.35;3.83;;;14.40;96.50;;;14.53;62.82;100407.41;5166752;28;20050;-71
2022/04/25 09:40:40;;;;;;;8.23;4.80;;;14.30;97.00;;;14.68;62.78;100407.63;5166806;28;20400;-71
2022/04/25 09:43:15;;;;;;;6.40;3.88;;;14.40;97.40;;;14.98;62.31;100417.56;5166049;28;20046;-71
2022/04/25 09:45:47;;;;;;;6.57;3.67;;;14.50;97.50;;;15.09;61.22;100417.69;5166388;28;20058;-71
2022/04/25 09:48:20;;;;;;;7.22;4.07;;;14.60;97.00;;;15.10;60.78;100404.56;5166721;28;20128;-71
2022/04/25 09:51:01;;;;;;;5.43;3.28;;;14.70;96.70;;;15.12;60.96;100408.09;5166272;28;20104;-72
2022/04/25 09:53:46;;;;;;;6.40;3.53;;;14.70;96.70;;;15.13;60.87;100412.50;5165385;28;20042;-73
2022/04/25 09:56:20;;;;;;;6.43;3.75;;;14.80;96.70;;;15.16;60.66;100414.25;5166260;28;20042;-68
2022/04/25 09:59:01;;;;;;;7.00;4.15;;;14.80;96.60;;;15.00;60.43;100417.59;5166486;28;20092;-72
2022/04/25 10:01:35;;;;;;;6.63;3.72;;;14.80;96.10;;;15.03;61.00;100421.13;5166350;28;20042;-74
2022/04/25 10:04:32;;;;;;;5.47;3.25;;;14.80;96.40;;;14.96;61.80;100424.56;5166567;28;20065;-74
2022/04/25 10:07:07;;;;;;;6.20;3.30;;;14.70;96.80;;;14.88;62.51;100424.47;5166344;28;20069;-76
2022/04/25 10:09:44;;;;;;;6.88;3.58;;;14.70;97.20;;;14.90;62.17;100425.34;5166739;28;20523;-70
2022/04/25 10:12:17;;;;;;;7.05;3.60;;;14.70;96.90;;;14.90;61.72;100429.72;5166195;28;20061;-70
2022/04/25 10:14:50;;;;;;;6.95;3.67;;;14.70;96.60;;;14.74;61.66;100436.56;5166215;28;20061;-70
2022/04/25 10:17:23;;;;;;;6.60;3.88;;;14.70;96.60;;;14.69;62.00;100430.34;5166319;28;20502;-69
2022/04/25 10:19:56;;;;;;;7.10;4.45;;;14.60;96.60;;;14.79;62.24;100436.59;5165969;28;20056;-73
2022/04/25 10:22:28;;;;;;;8.18;3.70;;;14.60;96.90;;;14.94;61.24;100434.16;5309552;23;20446;-72
2022/04/25 10:25:03;;;;;;;7.18;3.65;;;14.70;96.60;;;15.09;60.27;100442.19;5167540;28;20053;-71
2022/04/25 10:27:43;;;;;;;6.43;3.70;;;14.70;96.10;;;15.46;59.65;100439.94;5166296;28;20050;-72
2022/04/25 10:30:18;;;;;;;5.70;3.80;;;15.00;96.00;;;16.10;58.49;100432.56;5166743;28;20483;-71
2022/04/25 10:32:51;;;;;;;6.10;4.13;;;15.30;96.00;;;16.54;56.58;100435.47;5166677;28;20141;-74
2022/04/25 10:35:34;;;;;;;7.90;4.50;;;15.70;94.80;;;17.07;56.09;100440.09;5165975;28;20406;-71
2022/04/25 10:38:48;;;;;;;6.70;3.92;;;16.10;94.90;;;17.49;54.18;100441.06;5166032;28;20060;-71
2022/04/25 10:44:53;;;;;;;6.93;4.40;;;16.60;90.00;;;17.13;52.47;100430.44;5165663;28;20165;-71
2022/04/25 10:47:26;;;;;;;5.32;3.88;;;16.60;90.20;;;16.96;53.29;100439.19;5164146;28;20059;-71
2022/04/25 10:50:08;;;;;;;6.85;3.85;;;16.50;90.40;;;16.74;54.03;100432.06;5163475;28;20080;-71
2022/04/25 10:52:58;;;;;;;4.75;3.40;;;16.40;90.60;;;16.56;54.14;100432.84;5165020;28;20106;-72
2022/04/25 10:55:43;;;;;;;6.80;4.15;;;16.30;90.60;;;16.57;53.95;100439.88;5165298;28;20060;-70
2022/04/25 10:58:23;;;;;;;5.95;4.10;;;16.30;90.60;;;16.77;53.96;100438.25;5165264;28;20077;-70
2022/04/25 11:00:56;;;;;;;5.05;3.67;;;16.30;90.70;;;17.26;54.09;100438.38;5153537;28;20046;-70
2022/04/25 11:03:31;;;;;;;6.07;3.60;;;16.50;91.50;;;17.39;52.69;100438.41;5166091;28;20078;-71
2022/04/25 11:06:07;;;;;;;7.00;3.88;;;16.70;90.20;;;17.13;50.93;100446.25;5164182;28;20137;-71
2022/04/25 11:08:40;;;;;;;10.50;4.97;;;16.70;85.40;;;17.62;51.52;100448.09;5165428;28;20398;-70
2022/04/25 11:11:20;;;;;;;4.95;3.15;;;16.90;87.70;;;17.98;51.07;100445.47;5166105;28;20054;-72